CheckWX is a tool to help pilots better visualize weather data.  It is not intended as a substitute for an official pre-flight weather briefing.

06:46:33 UTC

FJDG TAF
Diego Garcia NSF Airport
Camp Justice, British Indian Ocean Territory
TAF FJDG 190100Z 1901/2007 11009KT 9999 FEW020 SCT100 BKN250 QNH2984INS BECMG 1921/1922 16009KT 8000 -SHRA FEW020 BKN100 BKN250 QNH2984INS TX32/1906Z TN26/1917Z

Sep-19@
01:00 UTC

Sep-19 @ 01:00 UTC

Sep-19@
21:00 UTC

Sep-19 @ 21:00 UTC

TAF FJDG 190100Z 1901/2007 11009KT 9999 FEW020 SCT100 BKN250 QNH2984INS
Wind
  • 110° at 9 KTS
Cloud Levels
  • Few at 2,000' AGL
  • Scattered at 10,000' AGL
  • Broken at 25,000' AGL

Sep-19@
21:00 UTC

Sep-19 @ 21:00 UTC

Sep-20@
07:00 UTC

Sep-20 @ 07:00 UTC

BECMG 1921/1922 16009KT 8000 -SHRA FEW020 BKN100 BKN250 QNH2984INS TX32/1906Z TN26/1917Z

Becoming

Becoming Conditions expected by Thu, Sep 19, 2019 @ 22:00 UTC

Wind
  • 160° at 9 KTS
Conditions
Light Rain
Cloud Levels
  • Few at 2,000' AGL
  • Broken at 10,000' AGL
  • Broken at 25,000' AGL